Union Trader — SVAX6 — position and weather

sailwx.info

Track history (hours):
 
Tides and Currents Weather Stations Pressure Air Temp Water Temp Dewpoint Dewpoint Depression Visibility Wind Speed Wind Dir Waves Ship Positions

Union Trader

Last reported at 2016-Jul-13 08:04 UTC. Time now 2016-Jul-29 07:49 UTC.
Position N 08°21' W 079°27'.
Warning: this ship's position is 15 days out of date.

Length 190 m; draft 11.5 m.

Type: Cargo ship. MMSI: 240982000.

Date/timePositionNaut miles runAvg speedWind from/ knotsBaromVisibWave heightAir tempDewpointWater temp
2016-Jul-13 08:04N 08°21' W 079°27'1214.1
2016-Jul-13 07:15N 08°33' W 079°27'1014.0
2016-Jul-13 06:32N 08°43' W 079°28'1211.8
2016-Jul-13 05:31N 08°54' W 079°32'6 6.7
2016-Jul-13 04:33N 08°60' W 079°35'0 0.5
2016-Jul-13 03:32N 09°00' W 079°36'0 0.4
2016-Jul-13 02:33N 09°00' W 079°36'1 0.6
2016-Jul-13 01:32N 09°01' W 079°37'0 0.3
2016-Jul-13 00:33N 09°01' W 079°37'0 0.3
2016-Jul-12 23:32N 09°01' W 079°37'3 2.6
2016-Jul-12 22:28N 09°03' W 079°39'6 6.1
2016-Jul-12 21:31N 09°07' W 079°43'7 7.1
2016-Jul-12 20:34N 09°10' W 079°49'7 7.3
2016-Jul-12 19:33N 09°15' W 079°55'0 0.2
2016-Jul-12 18:28N 09°15' W 079°55'0 0.0
2016-Jul-12 17:25N 09°15' W 079°55'0 0.1
2016-Jul-12 16:28N 09°15' W 079°55'0 0.1
2016-Jul-12 15:30N 09°15' W 079°55'0 0.0
2016-Jul-12 14:21N 09°15' W 079°55'0 0.0
2016-Jul-12 13:33N 09°15' W 079°55'0 0.0
2016-Jul-12 12:33N 09°15' W 079°55'0 0.0
2016-Jul-12 11:27N 09°15' W 079°55'0 0.1
2016-Jul-12 10:24N 09°15' W 079°55'0 0.2
2016-Jul-12 09:30N 09°15' W 079°55'1 1.4
2016-Jul-12 08:33N 09°16' W 079°55'0 0.3
2016-Jul-12 07:33N 09°17' W 079°55'1 1.0
2016-Jul-12 06:33N 09°18' W 079°55'6 5.6
2016-Jul-12 05:33N 09°23' W 079°55'5 5.4
2016-Jul-12 04:33N 09°28' W 079°57'0 0.1
2016-Jul-12 03:32N 09°28' W 079°57'0 0.0
2016-Jul-12 02:26N 09°28' W 079°57'0 0.0
2016-Jul-12 01:32N 09°28' W 079°57'0 0.0
2016-Jul-12 00:29N 09°28' W 079°57'0 0.0
2016-Jul-11 23:19N 09°28' W 079°57'0 0.0
2016-Jul-11 21:32N 09°28' W 079°57'0 0.0
2016-Jul-11 20:20N 09°28' W 079°57'0 0.0
2016-Jul-11 19:28N 09°28' W 079°57'0 0.0
2016-Jul-11 18:26N 09°28' W 079°57'0 0.0
2016-Jul-11 17:19N 09°28' W 079°57'0 0.0
2016-Jul-11 16:17N 09°28' W 079°57'0 0.0
2016-Jul-11 15:29N 09°28' W 079°57'0 0.0
2016-Jul-11 14:31N 09°28' W 079°57'0 0.0
2016-Jul-11 13:32N 09°28' W 079°57'0 0.0
2016-Jul-11 12:32N 09°28' W 079°57'0 0.0
2016-Jul-11 11:31N 09°28' W 079°57'0 0.1
2016-Jul-11 10:29N 09°28' W 079°57'0 0.1
2016-Jul-11 09:32N 09°28' W 079°57'0 0.0
2016-Jul-11 08:32N 09°28' W 079°57'0 0.0
2016-Jul-11 07:32N 09°28' W 079°57'0 0.1
2016-Jul-11 06:31N 09°28' W 079°57'0 0.0
2016-Jul-11 04:26N 09°28' W 079°57'0 0.1
2016-Jul-11 03:31N 09°28' W 079°57'3 2.9
2016-Jul-11 02:33N 09°30' W 079°55'1211.8
2016-Jul-11 01:33N 09°40' W 079°49'1111.3
2016-Jul-11 00:33N 09°46' W 079°39'2512.1
2016-Jul-10 22:29N 09°54' W 079°15'  
2016-Jul-04 13:32N 17°40' W 063°08'1111.3
2016-Jul-04 12:33N 17°49' W 063°15'1211.7
2016-Jul-04 11:33N 17°58' W 063°23'1211.5
2016-Jul-04 10:32N 18°07' W 063°31'1110.7
2016-Jul-04 09:28N 18°18' W 063°34'  
Track history (hours):
 
Tides and Currents Weather Stations Pressure Air Temp Water Temp Dewpoint Dewpoint Depression Visibility Wind Speed Wind Dir Waves Ship Positions

Union Trader

Last reported at 2016-Jul-13 08:04 UTC. Time now 2016-Jul-29 07:49 UTC.
Position N 08°21' W 079°27'.
Warning: this ship's position is 15 days out of date.

Length 190 m; draft 11.5 m.

Type: Cargo ship. MMSI: 240982000.

Date/timePositionNaut miles runAvg speedWind from/ knotsBaromVisibWave heightAir tempDewpointWater temp
2016-Jul-13 08:04N 08°21' W 079°27'1214.1
2016-Jul-13 07:15N 08°33' W 079°27'1014.0
2016-Jul-13 06:32N 08°43' W 079°28'1211.8
2016-Jul-13 05:31N 08°54' W 079°32'6 6.7
2016-Jul-13 04:33N 08°60' W 079°35'0 0.5
2016-Jul-13 03:32N 09°00' W 079°36'0 0.4
2016-Jul-13 02:33N 09°00' W 079°36'1 0.6
2016-Jul-13 01:32N 09°01' W 079°37'0 0.3
2016-Jul-13 00:33N 09°01' W 079°37'0 0.3
2016-Jul-12 23:32N 09°01' W 079°37'3 2.6
2016-Jul-12 22:28N 09°03' W 079°39'6 6.1
2016-Jul-12 21:31N 09°07' W 079°43'7 7.1
2016-Jul-12 20:34N 09°10' W 079°49'7 7.3
2016-Jul-12 19:33N 09°15' W 079°55'0 0.2
2016-Jul-12 18:28N 09°15' W 079°55'0 0.0
2016-Jul-12 17:25N 09°15' W 079°55'0 0.1
2016-Jul-12 16:28N 09°15' W 079°55'0 0.1
2016-Jul-12 15:30N 09°15' W 079°55'0 0.0
2016-Jul-12 14:21N 09°15' W 079°55'0 0.0
2016-Jul-12 13:33N 09°15' W 079°55'0 0.0
2016-Jul-12 12:33N 09°15' W 079°55'0 0.0
2016-Jul-12 11:27N 09°15' W 079°55'0 0.1
2016-Jul-12 10:24N 09°15' W 079°55'0 0.2
2016-Jul-12 09:30N 09°15' W 079°55'1 1.4
2016-Jul-12 08:33N 09°16' W 079°55'0 0.3
2016-Jul-12 07:33N 09°17' W 079°55'1 1.0
2016-Jul-12 06:33N 09°18' W 079°55'6 5.6
2016-Jul-12 05:33N 09°23' W 079°55'5 5.4
2016-Jul-12 04:33N 09°28' W 079°57'0 0.1
2016-Jul-12 03:32N 09°28' W 079°57'0 0.0
2016-Jul-12 02:26N 09°28' W 079°57'0 0.0
2016-Jul-12 01:32N 09°28' W 079°57'0 0.0
2016-Jul-12 00:29N 09°28' W 079°57'0 0.0
2016-Jul-11 23:19N 09°28' W 079°57'0 0.0
2016-Jul-11 21:32N 09°28' W 079°57'0 0.0
2016-Jul-11 20:20N 09°28' W 079°57'0 0.0
2016-Jul-11 19:28N 09°28' W 079°57'0 0.0
2016-Jul-11 18:26N 09°28' W 079°57'0 0.0
2016-Jul-11 17:19N 09°28' W 079°57'0 0.0
2016-Jul-11 16:17N 09°28' W 079°57'0 0.0
2016-Jul-11 15:29N 09°28' W 079°57'0 0.0
2016-Jul-11 14:31N 09°28' W 079°57'0 0.0
2016-Jul-11 13:32N 09°28' W 079°57'0 0.0
2016-Jul-11 12:32N 09°28' W 079°57'0 0.0
2016-Jul-11 11:31N 09°28' W 079°57'0 0.1
2016-Jul-11 10:29N 09°28' W 079°57'0 0.1
2016-Jul-11 09:32N 09°28' W 079°57'0 0.0
2016-Jul-11 08:32N 09°28' W 079°57'0 0.0
2016-Jul-11 07:32N 09°28' W 079°57'0 0.1
2016-Jul-11 06:31N 09°28' W 079°57'0 0.0
2016-Jul-11 04:26N 09°28' W 079°57'0 0.1
2016-Jul-11 03:31N 09°28' W 079°57'3 2.9
2016-Jul-11 02:33N 09°30' W 079°55'1211.8
2016-Jul-11 01:33N 09°40' W 079°49'1111.3
2016-Jul-11 00:33N 09°46' W 079°39'2512.1
2016-Jul-10 22:29N 09°54' W 079°15'  
2016-Jul-04 13:32N 17°40' W 063°08'1111.3
2016-Jul-04 12:33N 17°49' W 063°15'1211.7
2016-Jul-04 11:33N 17°58' W 063°23'1211.5
2016-Jul-04 10:32N 18°07' W 063°31'1110.7
2016-Jul-04 09:28N 18°18' W 063°34'  

Dump ship's entire track history